Time;durP1;ratioP1;P1;durP2;ratioP2;P2;SDS_P1;SDS_P2;PMS_P1;PMS_P2;Temp;Humidity;BMP_temperature;BMP_pressure;BME280_temperature;BME280_humidity;BME280_pressure;Samples;Min_cycle;Max_cycle;Signal;HPM_P1;HPM_P2
2021/12/03 00:01:15;;;;;;;17.40;6.20;;;;;;;15.45;61.89;100650.11;1752467;80;21057;-59
2021/12/03 00:03:41;;;;;;;16.57;5.75;;;;;;;15.68;61.44;100640.79;1752371;80;21024;-59
2021/12/03 00:06:09;;;;;;;20.27;5.03;;;;;;;15.75;61.29;100641.34;1761494;80;21042;-59
2021/12/03 00:08:36;;;;;;;16.32;5.70;;;;;;;15.76;61.34;100647.86;1758127;81;21070;-59
2021/12/03 00:11:03;;;;;;;14.18;5.00;;;;;;;15.79;61.28;100643.77;1755449;80;21096;-59
2021/12/03 00:13:33;;;;;;;15.05;5.08;;;;;;;15.83;61.25;100643.16;1756123;80;21510;-60
2021/12/03 00:16:00;;;;;;;19.75;5.35;;;;;;;15.83;61.14;100641.39;1761881;80;21006;-59
2021/12/03 00:18:27;;;;;;;16.05;5.33;;;;;;;15.83;61.13;100633.52;1759848;80;21013;-59
2021/12/03 00:20:54;;;;;;;16.37;5.50;;;;;;;15.58;61.92;100631.59;1739755;80;21043;-59
2021/12/03 00:23:21;;;;;;;17.15;4.97;;;;;;;15.53;62.13;100633.59;1764398;80;21101;-59
2021/12/03 00:25:47;;;;;;;20.00;5.33;;;;;;;15.74;61.62;100631.33;1762379;80;21008;-59
2021/12/03 00:28:13;;;;;;;15.13;5.70;;;;;;;15.79;61.49;100630.65;1755528;80;20998;-59
2021/12/03 00:30:41;;;;;;;19.57;5.65;;;;;;;15.83;61.49;100635.28;1759521;80;21022;-59
2021/12/03 00:33:08;;;;;;;15.13;5.03;;;;;;;15.83;61.56;100632.66;1774497;80;21042;-59
2021/12/03 00:35:35;;;;;;;16.67;4.87;;;;;;;15.85;61.52;100630.83;1748194;80;21073;-59
2021/12/03 00:38:02;;;;;;;25.00;5.80;;;;;;;15.85;61.46;100623.81;1744113;80;21019;-60
2021/12/03 00:40:34;;;;;;;21.50;5.83;;;;;;;15.87;61.52;100620.66;1749746;80;21046;-59
2021/12/03 00:43:01;;;;;;;21.27;6.35;;;;;;;15.90;61.43;100621.84;1756020;80;21023;-59
2021/12/03 00:45:29;;;;;;;24.12;5.47;;;;;;;15.89;61.33;100618.81;1745496;80;20998;-59
2021/12/03 00:47:56;;;;;;;14.38;6.00;;;;;;;15.89;61.31;100614.05;1756275;80;21041;-59
2021/12/03 00:50:23;;;;;;;20.48;5.33;;;;;;;15.88;61.30;100614.50;1761233;80;21018;-60
2021/12/03 00:52:51;;;;;;;20.50;5.35;;;;;;;15.86;61.44;100617.66;1750365;80;21011;-58
2021/12/03 00:55:19;;;;;;;14.85;5.62;;;;;;;15.85;61.57;100623.81;1752919;80;21045;-59
2021/12/03 00:57:45;;;;;;;16.17;5.20;;;;;;;15.85;61.55;100629.06;1755174;80;21063;-60
2021/12/03 01:00:16;;;;;;;14.83;5.50;;;;;;;15.87;61.66;100626.36;1757973;80;21090;-59
2021/12/03 01:02:42;;;;;;;28.07;7.25;;;;;;;15.89;61.64;100628.48;1753468;80;21565;-59
2021/12/03 01:05:09;;;;;;;20.92;6.78;;;;;;;15.90;61.61;100621.84;1752007;80;21624;-59
2021/12/03 01:07:36;;;;;;;14.30;5.80;;;;;;;15.93;61.60;100620.86;1756684;80;20988;-59
2021/12/03 01:10:04;;;;;;;25.90;6.20;;;;;;;15.95;61.51;100611.14;1763269;80;21518;-60
2021/12/03 01:12:31;;;;;;;31.90;8.40;;;;;;;15.96;61.51;100603.64;1754404;81;21026;-59
2021/12/03 01:14:57;;;;;;;26.35;6.22;;;;;;;15.98;61.34;100614.47;1764012;80;21083;-58
2021/12/03 01:17:24;;;;;;;18.45;5.72;;;;;;;15.97;61.25;100597.00;1760592;80;20986;-59
2021/12/03 01:19:50;;;;;;;17.92;5.47;;;;;;;15.96;61.11;100591.38;1760448;80;21584;-59
2021/12/03 01:22:17;;;;;;;18.82;4.60;;;;;;;15.93;61.18;100590.20;1751616;80;21034;-59
2021/12/03 01:24:43;;;;;;;17.15;4.05;;;;;;;15.89;61.07;100584.70;1767038;80;21042;-59
2021/12/03 01:27:10;;;;;;;17.55;6.20;;;;;;;15.86;60.95;100586.63;1751512;80;21041;-59
2021/12/03 01:29:37;;;;;;;17.30;4.75;;;;;;;15.83;60.91;100575.80;1762260;80;21066;-60
2021/12/03 01:32:05;;;;;;;18.45;5.10;;;;;;;15.82;60.85;100571.49;1746970;80;21048;-58
2021/12/03 01:34:31;;;;;;;16.17;4.42;;;;;;;15.83;60.72;100574.48;1751663;80;21064;-59
2021/12/03 01:36:58;;;;;;;15.28;4.20;;;;;;;15.84;60.58;100577.52;1748831;80;21052;-59
2021/12/03 01:39:24;;;;;;;17.12;3.92;;;;;;;15.81;60.46;100575.02;1767675;80;20983;-59
2021/12/03 01:41:50;;;;;;;14.20;3.77;;;;;;;15.81;60.33;100573.70;1767190;80;21010;-59
2021/12/03 01:44:17;;;;;;;15.75;4.10;;;;;;;15.78;60.26;100572.55;1763519;80;20963;-59
2021/12/03 01:46:43;;;;;;;12.93;3.62;;;;;;;15.76;60.10;100574.40;1749021;81;21049;-59
2021/12/03 01:49:11;;;;;;;13.55;3.67;;;;;;;15.74;60.10;100574.07;1766866;80;21022;-59
2021/12/03 01:51:38;;;;;;;14.68;4.10;;;;;;;15.73;60.02;100569.28;1758013;80;21007;-59
2021/12/03 01:54:05;;;;;;;12.68;3.98;;;;;;;15.74;60.02;100573.63;1761608;80;21176;-59
2021/12/03 01:56:32;;;;;;;10.85;3.72;;;;;;;15.76;59.91;100573.54;1754489;80;21074;-59
2021/12/03 01:58:58;;;;;;;14.58;4.00;;;;;;;15.75;59.83;100576.61;1755574;81;21095;-59
2021/12/03 02:01:27;;;;;;;20.08;4.92;;;;;;;15.75;59.92;100577.92;1762781;80;21035;-59
2021/12/03 02:03:57;;;;;;;10.38;3.77;;;;;;;15.74;59.93;100580.17;1762286;80;21077;-59
2021/12/03 02:06:25;;;;;;;21.02;7.50;;;;;;;15.74;59.95;100578.00;1761661;80;21466;-59
2021/12/03 02:08:52;;;;;;;19.25;4.15;;;;;;;15.73;59.96;100573.21;1765448;80;21049;-59
2021/12/03 02:11:18;;;;;;;20.08;4.65;;;;;;;15.74;59.96;100580.17;1760541;80;21031;-60
2021/12/03 02:13:45;;;;;;;17.27;4.70;;;;;;;15.75;59.92;100570.05;1766219;80;21007;-59
2021/12/03 02:16:13;;;;;;;17.05;4.62;;;;;;;15.76;59.87;100569.16;1758733;80;21055;-59
2021/12/03 02:18:40;;;;;;;22.45;3.98;;;;;;;15.77;59.85;100564.28;1754438;80;21074;-59
2021/12/03 02:21:07;;;;;;;12.60;4.42;;;;;;;15.77;59.95;100565.59;1748311;80;21517;-59
2021/12/03 02:23:33;;;;;;;17.98;4.78;;;;;;;15.77;59.97;100559.03;1743304;81;21596;-60
2021/12/03 02:26:00;;;;;;;15.25;4.12;;;;;;;15.77;60.02;100564.28;1762034;80;21487;-58
2021/12/03 02:28:32;;;;;;;16.85;5.00;;;;;;;15.77;60.11;100567.36;1756147;80;21002;-59
2021/12/03 02:30:59;;;;;;;16.10;4.80;;;;;;;15.78;60.01;100566.00;1751652;81;21039;-59
2021/12/03 02:33:25;;;;;;;16.75;4.85;;;;;;;15.78;60.05;100569.93;1761236;80;21077;-58
2021/12/03 02:35:53;;;;;;;16.07;4.65;;;;;;;15.76;60.14;100569.16;1763038;80;21038;-59
2021/12/03 02:38:21;;;;;;;19.00;4.15;;;;;;;15.75;60.22;100556.08;1759116;80;21105;-59
2021/12/03 02:40:49;;;;;;;18.10;4.65;;;;;;;15.73;60.36;100562.72;1754487;80;21518;-59
2021/12/03 02:43:15;;;;;;;16.90;5.55;;;;;;;15.72;60.56;100562.34;1748686;80;21501;-59
2021/12/03 02:45:42;;;;;;;15.98;4.58;;;;;;;15.74;60.58;100563.13;1750985;80;21033;-59
2021/12/03 02:48:09;;;;;;;18.55;4.65;;;;;;;15.75;60.51;100564.81;1763594;80;21037;-59
2021/12/03 02:50:35;;;;;;;13.53;3.85;;;;;;;15.75;60.36;100558.25;1759413;80;21045;-59
2021/12/03 02:53:02;;;;;;;18.57;4.35;;;;;;;15.75;60.22;100550.38;1754847;80;21043;-59
2021/12/03 02:55:29;;;;;;;22.50;5.17;;;;;;;15.76;60.13;100540.75;1750926;80;21054;-59
2021/12/03 02:57:56;;;;;;;16.73;4.58;;;;;;;15.76;60.10;100548.16;1767442;80;21010;-59
2021/12/03 03:00:25;;;;;;;17.00;4.95;;;;;;;15.77;60.11;100544.61;1770345;80;21031;-59
2021/12/03 03:02:51;;;;;;;18.65;4.58;;;;;;;15.77;60.22;100544.61;1750314;81;21564;-59
2021/12/03 03:05:19;;;;;;;19.12;6.03;;;;;;;15.78;60.51;100537.59;1764743;80;21042;-59
2021/12/03 03:07:46;;;;;;;15.05;5.72;;;;;;;15.79;60.59;100537.52;1769687;80;21069;-59
2021/12/03 03:10:18;;;;;;;15.83;5.25;;;;;;;15.81;60.65;100531.73;1768260;80;21018;-59
2021/12/03 03:12:45;;;;;;;18.57;5.92;;;;;;;15.80;60.76;100532.67;1754177;80;21043;-59
2021/12/03 03:15:12;;;;;;;21.15;5.45;;;;;;;15.81;60.77;100538.29;1755043;80;21006;-59
2021/12/03 03:17:39;;;;;;;23.38;5.90;;;;;;;15.81;60.84;100534.36;1751111;81;21022;-59
2021/12/03 03:20:07;;;;;;;17.57;5.45;;;;;;;15.81;60.96;100538.29;1755245;80;21495;-59
2021/12/03 03:22:36;;;;;;;26.05;7.17;;;;;;;15.82;60.94;100540.01;1767269;80;21104;-59
2021/12/03 03:25:05;;;;;;;23.73;6.58;;;;;;;15.84;61.02;100536.85;1759351;80;21068;-59
2021/12/03 03:27:32;;;;;;;20.48;5.42;;;;;;;15.86;60.90;100539.39;1767945;80;20981;-59
2021/12/03 03:29:59;;;;;;;18.55;5.12;;;;;;;15.87;60.90;100539.31;1770787;80;21022;-59
2021/12/03 03:32:25;;;;;;;16.85;5.12;;;;;;;15.85;61.00;100537.22;1760407;80;21077;-59
2021/12/03 03:34:52;;;;;;;21.07;6.05;;;;;;;15.85;60.94;100543.78;1712257;81;21062;-59
2021/12/03 03:37:20;;;;;;;20.48;5.00;;;;;;;15.83;61.08;100548.70;1768038;80;20963;-59
2021/12/03 03:39:47;;;;;;;18.45;5.75;;;;;;;15.80;61.19;100546.24;1755351;80;21006;-59
2021/12/03 03:42:14;;;;;;;17.73;4.60;;;;;;;15.81;61.15;100543.53;1756581;80;21094;-59
2021/12/03 03:44:41;;;;;;;19.98;5.08;;;;;;;15.82;61.10;100543.94;1748536;80;21549;-59
2021/12/03 03:47:08;;;;;;;16.75;5.45;;;;;;;15.84;61.05;100548.66;1749486;81;21469;-59
2021/12/03 03:49:34;;;;;;;25.27;6.53;;;;;;;15.84;61.01;100553.05;1754871;81;21447;-59
2021/12/03 03:52:01;;;;;;;19.90;5.08;;;;;;;15.83;60.95;100554.81;1759171;80;21037;-59
2021/12/03 03:54:29;;;;;;;17.05;5.30;;;;;;;15.80;60.99;100549.72;1770959;80;20987;-59
2021/12/03 03:56:55;;;;;;;15.88;4.40;;;;;;;15.79;60.97;100545.38;1743522;80;21034;-59
2021/12/03 03:59:21;;;;;;;15.95;4.20;;;;;;;15.77;60.80;100542.43;1767010;80;21022;-59
2021/12/03 04:01:51;;;;;;;15.58;4.17;;;;;;;15.77;60.54;100533.25;1769886;80;21026;-60
2021/12/03 04:04:20;;;;;;;16.75;4.33;;;;;;;15.77;60.41;100529.31;1752391;80;21002;-59
2021/12/03 04:06:47;;;;;;;11.85;4.42;;;;;;;15.77;60.34;100537.19;1765472;80;20994;-59
2021/12/03 04:09:14;;;;;;;18.52;4.83;;;;;;;15.76;60.18;100538.98;1753503;80;21030;-59
2021/12/03 04:11:41;;;;;;;15.40;4.17;;;;;;;15.75;60.09;100537.27;1751134;80;21571;-59
2021/12/03 04:14:08;;;;;;;15.10;4.62;;;;;;;15.74;59.93;100539.52;1755035;80;21570;-60
2021/12/03 04:16:34;;;;;;;13.98;4.30;;;;;;;15.72;59.98;100541.36;1754079;80;20995;-59
2021/12/03 04:19:01;;;;;;;15.80;4.58;;;;;;;15.71;59.99;100536.16;1753565;80;21006;-59
2021/12/03 04:21:27;;;;;;;10.82;4.20;;;;;;;15.69;59.95;100536.23;1756611;80;21074;-59
2021/12/03 04:23:54;;;;;;;15.48;4.25;;;;;;;15.69;59.99;100532.75;1752959;80;21474;-59
2021/12/03 04:26:21;;;;;;;17.05;4.53;;;;;;;15.70;59.94;100532.71;1776704;80;21030;-59
2021/12/03 04:28:47;;;;;;;23.80;4.80;;;;;;;15.71;59.90;100534.39;1757248;80;21525;-59
2021/12/03 04:31:14;;;;;;;17.40;4.17;;;;;;;15.70;59.76;100532.71;1760101;80;21515;-61
2021/12/03 04:33:40;;;;;;;16.67;4.10;;;;;;;15.70;59.64;100535.33;1755449;80;21057;-59
2021/12/03 04:36:06;;;;;;;16.25;4.10;;;;;;;15.67;59.51;100538.08;1757882;80;21502;-59
2021/12/03 04:38:34;;;;;;;19.73;4.50;;;;;;;15.64;59.37;100544.77;1765949;80;21660;-59
2021/12/03 04:41:01;;;;;;;13.93;3.55;;;;;;;15.62;59.31;100537.42;1750891;80;21625;-59
2021/12/03 04:43:30;;;;;;;17.23;3.80;;;;;;;15.62;59.22;100526.94;1767267;80;21462;-59
2021/12/03 04:45:56;;;;;;;10.08;2.83;;;;;;;15.63;59.14;100528.66;1758178;80;21045;-59
2021/12/03 04:48:24;;;;;;;10.85;3.77;;;;;;;15.63;59.08;100523.86;1756941;80;21156;-60
2021/12/03 04:50:50;;;;;;;17.25;3.72;;;;;;;15.62;59.00;100523.48;1762394;80;21037;-59
2021/12/03 04:53:17;;;;;;;11.22;3.70;;;;;;;15.60;58.93;100522.70;1767697;80;21042;-59
2021/12/03 04:55:43;;;;;;;13.08;4.17;;;;;;;15.56;58.89;100511.48;1759733;80;21002;-58
2021/12/03 04:58:10;;;;;;;15.05;3.47;;;;;;;15.56;58.97;100515.90;1769442;80;21007;-58
2021/12/03 05:00:45;;;;;;;13.72;3.75;;;;;;;15.56;58.99;100518.52;1745928;81;21098;-59
2021/12/03 05:03:13;;;;;;;17.65;4.35;;;;;;;15.54;59.06;100513.33;1749910;80;20999;-59
2021/12/03 05:05:44;;;;;;;15.78;3.98;;;;;;;15.51;59.12;100517.41;1745233;80;21035;-59
2021/12/03 05:08:11;;;;;;;14.23;3.83;;;;;;;15.51;59.13;100516.56;1769486;80;21026;-59
2021/12/03 05:10:40;;;;;;;15.88;4.10;;;;;;;15.48;59.20;100513.61;1766065;80;21022;-59
2021/12/03 05:13:21;;;;;;;14.90;3.60;;;;;;;15.48;59.32;100509.67;1763655;80;21474;-59
2021/12/03 05:15:47;;;;;;;23.65;4.37;;;;;;;15.45;59.50;100503.27;1765656;80;21034;-59
2021/12/03 05:18:17;;;;;;;13.72;3.47;;;;;;;15.46;59.65;100504.95;1759244;80;21085;-59
2021/12/03 05:20:44;;;;;;;20.00;5.47;;;;;;;15.48;59.69;100510.98;1760601;80;20966;-59
2021/12/03 05:23:11;;;;;;;19.90;4.08;;;;;;;15.50;59.62;100518.32;1760709;80;21128;-60
2021/12/03 05:25:37;;;;;;;13.18;3.70;;;;;;;15.51;59.60;100513.48;1765442;81;21078;-59
2021/12/03 05:28:04;;;;;;;14.60;4.33;;;;;;;15.53;59.58;100515.58;1749267;80;21005;-59
2021/12/03 05:30:32;;;;;;;17.95;5.05;;;;;;;15.52;59.64;100508.61;1761854;80;21003;-59
2021/12/03 05:32:58;;;;;;;16.93;4.00;;;;;;;15.50;59.80;100518.32;1770085;80;21069;-59
2021/12/03 05:35:25;;;;;;;14.10;3.50;;;;;;;15.51;59.85;100517.87;1763379;80;21033;-59
2021/12/03 05:37:52;;;;;;;18.85;3.83;;;;;;;15.51;59.90;100517.41;1762611;80;21021;-59
2021/12/03 05:40:19;;;;;;;11.10;3.90;;;;;;;15.51;59.84;100513.94;1750916;81;21055;-59
2021/12/03 05:42:46;;;;;;;10.65;3.17;;;;;;;15.50;59.73;100506.52;1753755;81;21082;-59
2021/12/03 05:45:19;;;;;;;11.65;3.42;;;;;;;15.50;59.55;100513.08;1752731;80;20983;-59
2021/12/03 05:47:46;;;;;;;11.85;3.47;;;;;;;15.50;59.40;100517.01;1774662;80;21081;-59
2021/12/03 05:50:13;;;;;;;13.00;3.42;;;;;;;15.50;59.30;100517.01;1752586;81;21137;-58
2021/12/03 05:52:39;;;;;;;11.30;3.35;;;;;;;15.51;59.18;100521.35;1758327;80;21537;-59
2021/12/03 05:55:07;;;;;;;12.30;3.90;;;;;;;15.53;59.11;100518.20;1765318;80;21513;-59
2021/12/03 05:57:34;;;;;;;13.88;4.05;;;;;;;15.55;58.99;100520.28;1764519;80;21489;-59
2021/12/03 06:00:05;;;;;;;15.43;3.85;;;;;;;15.58;59.05;100517.99;1756537;80;21066;-58
2021/12/03 06:02:32;;;;;;;14.47;3.70;;;;;;;15.58;59.17;100521.92;1751399;80;21073;-59
2021/12/03 06:04:59;;;;;;;13.72;5.05;;;;;;;15.60;59.21;100518.28;1755957;80;21077;-59
2021/12/03 06:07:25;;;;;;;10.23;3.83;;;;;;;15.61;59.12;100514.76;1759212;80;20994;-59
2021/12/03 06:09:52;;;;;;;16.42;4.72;;;;;;;15.64;58.98;100505.91;1754372;80;21108;-58
2021/12/03 06:12:18;;;;;;;13.83;3.95;;;;;;;15.72;58.87;100511.19;1743960;80;21014;-59
2021/12/03 06:14:44;;;;;;;11.78;3.58;;;;;;;15.80;58.56;100518.24;1761324;80;21018;-58
2021/12/03 06:19:40;;;;;;;12.03;4.25;;;;;;;15.90;58.03;100519.96;1655526;86;21100;-58
2021/12/03 06:22:08;;;;;;;19.30;5.65;;;;;;;15.92;58.03;100523.36;1643404;86;21083;-58
2021/12/03 06:24:35;;;;;;;8.85;3.65;;;;;;;15.91;58.08;100515.95;1647455;86;21026;-58
2021/12/03 06:27:01;;;;;;;12.00;3.50;;;;;;;15.94;58.08;100513.64;1638916;86;21598;-58
2021/12/03 06:29:28;;;;;;;15.55;4.28;;;;;;;15.95;57.96;100505.69;1656842;85;21105;-58
2021/12/03 06:31:55;;;;;;;14.95;4.47;;;;;;;15.96;57.79;100511.34;1623068;88;21070;-58
2021/12/03 06:34:22;;;;;;;11.08;3.65;;;;;;;15.96;57.80;100511.34;1604540;88;21037;-58
2021/12/03 06:36:48;;;;;;;11.60;3.27;;;;;;;15.97;57.83;100513.02;1590157;88;21100;-58
2021/12/03 06:39:15;;;;;;;15.03;3.00;;;;;;;15.98;57.92;100524.38;1601878;88;21076;-59
2021/12/03 06:41:41;;;;;;;18.98;3.70;;;;;;;15.98;58.02;100545.37;1627889;88;21114;-58
2021/12/03 06:44:08;;;;;;;13.40;4.37;;;;;;;15.98;58.14;100541.44;1607927;87;21054;-58
2021/12/03 06:46:36;;;;;;;9.90;3.40;;;;;;;15.97;58.27;100543.20;1600616;89;21049;-58
2021/12/03 06:49:03;;;;;;;15.55;4.70;;;;;;;16.00;58.21;100545.70;1653822;85;21043;-58
2021/12/03 06:51:31;;;;;;;9.93;3.33;;;;;;;16.03;58.07;100541.60;1654432;86;21063;-58
2021/12/03 06:54:02;;;;;;;15.20;3.65;;;;;;;16.03;57.98;100545.54;1658916;85;21071;-58
2021/12/03 06:56:32;;;;;;;7.08;3.77;;;;;;;16.06;57.89;100557.22;1616165;88;21110;-58
2021/12/03 06:58:54;;;;;;;10.82;3.98;;;;;;;16.06;57.89;100554.59;1594811;89;21082;-59
2021/12/03 07:01:20;;;;;;;15.58;3.77;;;;;;;16.06;57.87;100570.34;1600839;89;21125;-58
2021/12/03 07:03:47;;;;;;;14.98;3.87;;;;;;;16.08;57.93;100560.62;1593825;90;21148;-58
2021/12/03 07:06:14;;;;;;;12.43;3.80;;;;;;;16.10;57.91;100561.86;1588401;87;21109;-59
2021/12/03 07:08:40;;;;;;;13.83;3.87;;;;;;;16.12;57.88;100556.07;1590015;89;21054;-58
2021/12/03 07:11:07;;;;;;;10.98;3.70;;;;;;;16.14;57.88;100562.95;1584285;89;21097;-58
2021/12/03 07:13:33;;;;;;;16.27;3.95;;;;;;;16.15;57.86;100566.44;1593688;89;21047;-58
2021/12/03 07:16:00;;;;;;;14.30;4.20;;;;;;;16.15;58.00;100561.19;1629948;83;21114;-59
2021/12/03 07:18:26;;;;;;;18.98;4.75;;;;;;;16.17;57.98;100553.64;1689475;83;21058;-58
2021/12/03 07:20:53;;;;;;;15.32;4.05;;;;;;;16.19;57.97;100546.54;1709554;82;21578;-58
2021/12/03 07:23:19;;;;;;;13.75;3.98;;;;;;;16.22;57.91;100545.06;1708550;83;21507;-58
2021/12/03 07:25:47;;;;;;;13.03;3.70;;;;;;;16.23;57.72;100542.84;1754394;80;21047;-59
2021/12/03 07:28:15;;;;;;;17.55;4.65;;;;;;;16.20;57.76;100541.66;1751416;80;21132;-58
2021/12/03 07:30:42;;;;;;;11.70;3.90;;;;;;;16.18;57.85;100543.51;1763066;80;21517;-59
2021/12/03 07:33:13;;;;;;;15.45;4.90;;;;;;;16.17;57.86;100535.72;1755720;80;21061;-58
2021/12/03 07:35:38;;;;;;;15.40;4.97;;;;;;;16.17;57.99;100535.72;1759364;80;21530;-58
2021/12/03 07:38:04;;;;;;;14.80;4.15;;;;;;;16.19;57.98;100547.85;1750156;80;21092;-59
2021/12/03 07:40:31;;;;;;;12.43;3.98;;;;;;;16.22;58.07;100550.31;1757040;80;21039;-58
2021/12/03 07:42:58;;;;;;;19.42;4.05;;;;;;;16.26;58.04;100549.69;1752267;80;21068;-58
2021/12/03 07:45:24;;;;;;;12.33;3.52;;;;;;;16.27;58.05;100550.95;1749401;80;21030;-58
2021/12/03 07:47:50;;;;;;;12.30;3.67;;;;;;;16.30;57.96;100554.73;1770518;80;21002;-58
2021/12/03 07:50:17;;;;;;;10.38;3.12;;;;;;;16.31;57.95;100556.91;1761760;80;21077;-58
2021/12/03 07:52:44;;;;;;;17.57;4.12;;;;;;;16.35;57.91;100562.84;1755507;80;21061;-58
2021/12/03 07:55:11;;;;;;;19.42;4.85;;;;;;;16.37;57.91;100557.91;1766457;80;21090;-58
2021/12/03 07:57:38;;;;;;;11.20;3.52;;;;;;;16.39;57.89;100548.64;1752446;80;21053;-59
2021/12/03 08:00:08;;;;;;;9.80;3.67;;;;;;;16.41;57.91;100549.41;1750254;80;21063;-58
2021/12/03 08:02:41;;;;;;;12.03;3.90;;;;;;;16.41;57.91;100557.30;1750109;80;21023;-59
2021/12/03 08:05:08;;;;;;;12.05;3.52;;;;;;;16.42;57.93;100566.89;1751766;80;21025;-58
2021/12/03 08:07:35;;;;;;;11.00;3.60;;;;;;;16.42;58.04;100564.27;1762023;80;21047;-58
2021/12/03 08:10:03;;;;;;;15.25;3.83;;;;;;;16.45;58.03;100561.47;1754810;80;21050;-58
2021/12/03 08:12:29;;;;;;;12.30;4.00;;;;;;;16.48;57.96;100561.34;1757612;80;21552;-58
2021/12/03 08:14:55;;;;;;;15.15;3.98;;;;;;;16.51;57.83;100563.83;1751641;80;21546;-58
2021/12/03 08:17:22;;;;;;;10.23;4.10;;;;;;;16.54;57.79;100563.23;1773034;80;21030;-58
2021/12/03 08:19:48;;;;;;;10.30;3.87;;;;;;;16.56;57.73;100551.33;1749387;80;21041;-59
2021/12/03 08:22:14;;;;;;;15.53;4.37;;;;;;;16.60;57.68;100552.88;1754158;80;20987;-58
2021/12/03 08:24:41;;;;;;;12.90;4.20;;;;;;;16.63;57.78;100555.37;1758399;80;20994;-58
2021/12/03 08:27:07;;;;;;;13.10;3.85;;;;;;;16.68;57.76;100560.77;1768695;80;20994;-58
2021/12/03 08:29:34;;;;;;;14.53;3.90;;;;;;;16.73;57.53;100559.23;1747806;80;21057;-58
2021/12/03 08:32:01;;;;;;;12.53;3.58;;;;;;;16.76;57.34;100564.33;1754580;80;20982;-58
2021/12/03 08:34:27;;;;;;;14.28;3.75;;;;;;;16.75;57.08;100560.02;1770724;80;20991;-58
2021/12/03 08:36:54;;;;;;;13.60;4.00;;;;;;;16.75;57.08;100563.95;1760679;80;21064;-58
2021/12/03 08:39:20;;;;;;;13.03;4.62;;;;;;;16.73;57.11;100559.23;1749214;81;21066;-58
2021/12/03 08:41:47;;;;;;;13.58;3.90;;;;;;;16.72;57.13;100560.15;1754460;80;21001;-59
2021/12/03 08:44:13;;;;;;;19.52;5.20;;;;;;;16.75;57.35;100560.02;1741132;80;21016;-59
2021/12/03 08:46:40;;;;;;;15.55;3.92;;;;;;;16.79;57.37;100546.66;1761752;80;21039;-59
2021/12/03 08:49:15;;;;;;;12.88;3.65;;;;;;;16.85;56.93;100537.59;1763670;80;21035;-59
2021/12/03 08:56:55;;;;;;;12.28;3.65;;;;;;;16.85;56.28;100529.71;1758828;79;21044;-58
2021/12/03 08:59:23;;;;;;;13.85;4.33;;;;;;;16.83;56.35;100526.31;1749917;80;21741;-59
2021/12/03 09:01:50;;;;;;;15.10;3.50;;;;;;;16.84;56.53;100520.97;1762489;80;21019;-58
2021/12/03 09:04:16;;;;;;;13.98;3.95;;;;;;;16.86;56.61;100514.31;1753314;81;20980;-58
2021/12/03 09:06:43;;;;;;;16.57;3.55;;;;;;;16.88;56.58;100514.63;1752708;80;21070;-58
2021/12/03 09:09:09;;;;;;;11.12;3.72;;;;;;;16.92;56.40;100510.05;1769285;80;21529;-58
2021/12/03 09:11:36;;;;;;;9.88;3.25;;;;;;;16.93;56.09;100507.83;1752986;80;20999;-58
2021/12/03 09:14:12;;;;;;;20.75;4.28;;;;;;;16.95;55.98;100506.83;1766353;80;21014;-58
2021/12/03 09:16:33;;;;;;;11.65;3.83;;;;;;;16.97;55.92;100513.31;1765108;80;21062;-58
2021/12/03 09:19:00;;;;;;;13.50;3.87;;;;;;;16.99;56.01;100512.77;1750470;80;21028;-58
2021/12/03 09:21:29;;;;;;;9.63;3.35;;;;;;;17.01;56.13;100517.02;1746034;81;21040;-58
2021/12/03 09:24:11;;;;;;;14.85;5.40;;;;;;;17.06;56.31;100512.36;1755998;80;21005;-59
2021/12/03 09:26:40;;;;;;;10.88;3.62;;;;;;;17.12;56.37;100509.90;1736931;80;21580;-58
2021/12/03 09:29:07;;;;;;;10.08;3.60;;;;;;;17.22;56.36;100507.63;1753145;80;21518;-58
2021/12/03 09:31:36;;;;;;;14.85;4.45;;;;;;;17.30;56.20;100506.30;1749008;81;21077;-59
2021/12/03 09:34:07;;;;;;;13.13;3.98;;;;;;;17.37;55.83;100508.96;1760989;80;21053;-59
2021/12/03 09:36:32;;;;;;;6.95;3.20;;;;;;;17.40;55.46;100515.39;1753858;80;21039;-58
2021/12/03 09:39:00;;;;;;;9.85;3.30;;;;;;;17.40;54.57;100510.59;1763832;80;21027;-59
2021/12/03 09:41:27;;;;;;;12.78;3.47;;;;;;;17.35;54.05;100516.58;1761109;80;20983;-59
2021/12/03 09:43:53;;;;;;;12.98;3.37;;;;;;;17.29;53.98;100509.84;1759840;81;21027;-58
2021/12/03 09:49:14;;;;;;;12.10;3.62;;;;;;;17.26;53.84;100502.13;1696435;83;21104;-59
2021/12/03 09:51:28;;;;;;;10.55;3.90;;;;;;;17.24;53.73;100490.84;1639165;86;21085;-59
2021/12/03 09:54:21;;;;;;;12.98;3.80;;;;;;;17.21;53.90;100488.36;1643566;86;21797;-59
2021/12/03 09:56:38;;;;;;;10.70;3.95;;;;;;;17.19;53.89;100498.11;1623275;87;21070;-59
2021/12/03 10:10:24;;;;;;;11.18;3.58;;;;;;;16.97;54.73;100479.14;1566963;89;21144;-59
2021/12/03 10:12:43;;;;;;;7.58;3.12;;;;;;;16.94;54.87;100487.17;1566419;90;21105;-59
2021/12/03 10:15:26;;;;;;;11.35;2.95;;;;;;;16.93;55.04;100490.75;1566293;89;21049;-59
2021/12/03 10:18:01;;;;;;;9.35;3.42;;;;;;;16.91;55.04;100493.46;1524278;92;21140;-59
2021/12/03 10:39:37;;;;;;;15.78;4.50;;;;;;;17.18;54.75;100483.28;1477085;96;21664;-59
2021/12/03 10:42:19;;;;;;;13.30;4.10;;;;;;;17.19;54.80;100485.45;1419676;99;21598;-59
2021/12/03 11:36:34;;;;;;;12.82;4.20;;;;;;;17.33;54.97;100483.76;1606031;88;21060;-59
2021/12/03 13:07:10;;;;;;;16.37;6.30;;;;;;;16.93;55.31;100497.31;1678475;84;21161;-64
2021/12/03 14:01:12;;;;;;;15.15;5.58;;;;;;;16.84;56.23;100528.00;1749774;80;21057;-64
2021/12/03 14:26:57;;;;;;;32.23;8.83;;;;;;;16.72;56.26;100578.55;1632786;86;21053;-66
2021/12/03 14:47:38;;;;;;;20.65;6.60;;;;;;;16.65;56.09;100588.98;1568706;91;21061;-66
2021/12/03 14:55:38;;;;;;;17.50;5.53;;;;;;;16.60;56.91;100608.05;1527287;93;21081;-65
2021/12/03 14:58:10;;;;;;;11.25;5.22;;;;;;;16.60;56.91;100608.05;1521399;92;22237;-66
2021/12/03 15:08:25;;;;;;;16.57;5.45;;;;;;;16.63;57.50;100639.44;1388074;103;21284;-66
2021/12/03 15:21:37;;;;;;;26.48;7.97;;;;;;;16.66;57.97;100657.66;1435686;98;21620;-67
2021/12/03 15:31:48;;;;;;;21.85;7.42;;;;;;;16.73;57.03;100649.40;1438524;98;21155;-67
2021/12/03 15:34:31;;;;;;;12.30;5.03;;;;;;;16.74;56.93;100695.78;1438119;99;21124;-66
2021/12/03 15:37:03;;;;;;;12.85;4.72;;;;;;;16.74;56.71;100676.53;1436037;98;22605;-67
2021/12/03 15:58:04;;;;;;;12.98;6.53;;;;;;;16.58;55.58;100746.50;1480450;96;21105;-66
2021/12/03 16:08:26;;;;;;;12.82;6.58;;;;;;;16.46;55.46;100736.53;1756824;80;21049;-66
2021/12/03 16:53:39;;;;;;;8.00;5.17;;;;;;;16.21;55.02;100794.10;1683401;84;21014;-65
2021/12/03 16:56:12;;;;;;;8.03;5.35;;;;;;;16.18;54.80;100787.66;1694195;84;21038;-66
2021/12/03 16:58:39;;;;;;;8.35;5.47;;;;;;;16.17;54.46;100795.16;1673373;85;21565;-66
2021/12/03 17:01:23;;;;;;;11.63;9.20;;;;;;;16.16;53.93;100807.88;1672150;85;21003;-67
2021/12/03 17:03:49;;;;;;;18.52;15.25;;;;;;;16.12;53.17;100821.19;1682689;83;21573;-66
2021/12/03 17:14:13;;;;;;;18.12;13.85;;;;;;;15.20;49.87;100847.31;1665400;85;20998;-64
2021/12/03 17:54:24;;;;;;;21.52;17.23;;;;;;;13.50;51.70;100894.80;1670897;84;21030;-65
2021/12/03 17:56:42;;;;;;;21.68;18.05;;;;;;;13.42;51.91;100900.27;1661207;84;21125;-64
2021/12/03 17:59:20;;;;;;;22.58;17.85;;;;;;;13.35;51.78;100910.97;1653511;84;21026;-64
2021/12/03 18:01:58;;;;;;;19.85;17.57;;;;;;;13.30;52.23;100935.06;1665814;85;21065;-63
2021/12/03 18:07:13;;;;;;;22.65;18.40;;;;;;;13.28;52.31;100961.70;1652751;85;21109;-63
2021/12/03 18:58:05;;;;;;;22.27;18.27;;;;;;;12.91;52.80;101035.86;1760800;80;21017;-65
2021/12/03 19:00:35;;;;;;;24.52;18.85;;;;;;;12.89;52.82;101032.43;1755655;81;21019;-63
2021/12/03 19:03:08;;;;;;;21.48;18.17;;;;;;;12.89;53.04;101039.41;1755642;80;21475;-64
2021/12/03 19:08:31;;;;;;;21.37;17.77;;;;;;;12.87;52.90;101060.78;1754549;80;21039;-63
2021/12/03 19:10:52;;;;;;;24.27;16.60;;;;;;;12.82;52.80;101059.59;1768585;80;21058;-64
2021/12/03 19:13:25;;;;;;;20.97;15.38;;;;;;;12.79;52.68;101071.88;1744853;80;21069;-64